createdAt,value
2022-11-06T00:00:21.205Z,5.50
2022-11-06T00:03:10.369Z,5.50
2022-11-06T00:06:17.557Z,5.22
2022-11-06T00:09:10.374Z,5.43
2022-11-06T00:11:58.828Z,5.18
2022-11-06T00:14:47.278Z,5.29
2022-11-06T00:17:35.717Z,5.11
2022-11-06T00:20:24.153Z,5.31
2022-11-06T00:23:13.952Z,5.34
2022-11-06T00:26:02.485Z,5.34
2022-11-06T00:28:50.988Z,5.29
2022-11-06T00:31:39.438Z,5.28
2022-11-06T00:34:27.827Z,5.23
2022-11-06T00:37:16.285Z,4.90
2022-11-06T00:40:07.323Z,5.18
2022-11-06T00:42:57.047Z,5.10
2022-11-06T00:45:45.454Z,4.97
2022-11-06T00:48:34.240Z,5.01
2022-11-06T00:51:25.313Z,4.91
2022-11-06T00:54:14.433Z,4.95
2022-11-06T00:57:04.326Z,4.89
2022-11-06T00:59:52.752Z,4.73
2022-11-06T01:02:41.273Z,4.60
2022-11-06T01:05:29.894Z,4.50
2022-11-06T01:08:18.347Z,4.49
2022-11-06T01:11:08.846Z,4.48
2022-11-06T01:14:00.364Z,4.45
2022-11-06T01:16:48.757Z,4.47
2022-11-06T01:19:37.232Z,4.40
2022-11-06T01:22:25.685Z,4.53
2022-11-06T01:25:14.095Z,4.53
2022-11-06T01:28:02.533Z,4.49
2022-11-06T01:30:52.328Z,4.47
2022-11-06T01:33:41.189Z,4.46
2022-11-06T01:36:30.165Z,4.44
2022-11-06T01:39:18.762Z,4.49
2022-11-06T01:42:07.188Z,4.52
2022-11-06T01:45:22.262Z,4.41
2022-11-06T01:48:12.931Z,4.33
2022-11-06T01:51:02.080Z,4.14
2022-11-06T01:53:50.625Z,4.10
2022-11-06T01:56:39.969Z,4.14
2022-11-06T01:59:30.732Z,4.13
2022-11-06T02:02:19.462Z,4.04
2022-11-06T02:05:10.240Z,4.12
2022-11-06T02:08:00.772Z,4.07
2022-11-06T02:10:49.699Z,4.08
2022-11-06T02:13:44.514Z,4.02
2022-11-06T02:16:40.669Z,3.95
2022-11-06T02:19:40.983Z,4.02
2022-11-06T02:23:01.627Z,4.10
2022-11-06T02:25:53.589Z,4.03
2022-11-06T02:28:47.872Z,4.05
2022-11-06T02:31:37.077Z,4.11
2022-11-06T02:34:26.535Z,3.21
2022-11-06T02:37:16.553Z,4.12
2022-11-06T02:40:08.193Z,4.19
2022-11-06T02:42:58.774Z,4.21
2022-11-06T02:45:50.460Z,4.18
2022-11-06T02:48:43.759Z,4.15
2022-11-06T02:51:34.373Z,4.16
2022-11-06T02:54:23.754Z,4.22
2022-11-06T02:57:15.696Z,4.21
2022-11-06T03:00:07.588Z,4.18
2022-11-06T03:03:01.588Z,4.06
2022-11-06T03:05:53.411Z,4.03
2022-11-06T03:08:43.524Z,4.02
2022-11-06T03:11:35.697Z,4.08
2022-11-06T03:14:28.470Z,3.89
2022-11-06T03:17:19.731Z,3.95
2022-11-06T03:20:19.250Z,3.96
2022-11-06T03:23:14.422Z,4.03
2022-11-06T03:26:12.280Z,3.94
2022-11-06T03:29:06.824Z,3.87
2022-11-06T03:31:58.321Z,3.84
2022-11-06T03:34:51.481Z,3.78
2022-11-06T03:37:45.140Z,3.76
2022-11-06T03:40:37.880Z,3.84
2022-11-06T03:43:29.343Z,3.82
2022-11-06T03:46:20.779Z,3.81
2022-11-06T03:49:11.113Z,3.82
2022-11-06T03:52:02.327Z,3.84
2022-11-06T03:54:54.896Z,3.84
2022-11-06T03:57:46.181Z,3.77
2022-11-06T04:00:36.407Z,3.66
2022-11-06T04:03:27.773Z,3.59
2022-11-06T04:06:20.047Z,3.54
2022-11-06T04:09:28.073Z,3.50
2022-11-06T04:12:39.084Z,3.51
2022-11-06T04:15:28.180Z,3.43
2022-11-06T04:18:19.739Z,3.47
2022-11-06T04:21:25.776Z,3.47
2022-11-06T04:24:42.304Z,3.10
2022-11-06T04:27:43.026Z,3.20
2022-11-06T04:30:34.114Z,2.98
2022-11-06T04:33:27.111Z,2.82
2022-11-06T04:36:21.141Z,2.90
2022-11-06T04:39:14.811Z,2.87
2022-11-06T04:42:07.135Z,2.88
2022-11-06T04:45:02.801Z,2.83
2022-11-06T04:47:52.229Z,2.84
2022-11-06T04:50:44.176Z,2.86
2022-11-06T04:53:33.410Z,2.81
2022-11-06T04:56:25.757Z,2.86
2022-11-06T04:59:16.319Z,2.80
2022-11-06T05:02:06.863Z,2.79
2022-11-06T05:04:55.421Z,2.81
2022-11-06T05:07:43.813Z,2.80
2022-11-06T05:10:32.243Z,2.89
2022-11-06T05:13:20.655Z,2.91
2022-11-06T05:16:09.335Z,2.90
2022-11-06T05:18:59.184Z,2.86
2022-11-06T05:22:05.014Z,2.76
2022-11-06T05:24:53.425Z,2.57
2022-11-06T05:27:41.881Z,2.53
2022-11-06T05:30:30.319Z,2.23
2022-11-06T05:33:18.728Z,2.61
2022-11-06T05:36:09.431Z,2.62
2022-11-06T05:38:57.911Z,2.62
2022-11-06T05:41:46.333Z,2.62
2022-11-06T05:44:34.781Z,2.63
2022-11-06T05:47:23.437Z,2.54
2022-11-06T05:50:11.899Z,2.60
2022-11-06T05:53:02.295Z,2.64
2022-11-06T05:55:50.721Z,2.59
2022-11-06T05:58:39.167Z,2.55
2022-11-06T06:01:27.628Z,2.60
2022-11-06T06:04:16.293Z,2.55
2022-11-06T06:07:04.765Z,2.54
2022-11-06T06:09:54.587Z,2.59
2022-11-06T06:12:43.005Z,2.60
2022-11-06T06:15:31.419Z,2.56
2022-11-06T06:18:19.861Z,2.38
2022-11-06T06:21:08.303Z,2.42
2022-11-06T06:23:56.713Z,2.39
2022-11-06T06:26:46.847Z,2.42
2022-11-06T06:29:35.670Z,2.35
2022-11-06T06:32:24.153Z,2.33
2022-11-06T06:35:12.590Z,2.28
2022-11-06T06:38:01.210Z,2.35
2022-11-06T06:40:49.666Z,2.55
2022-11-06T06:43:39.437Z,2.87
2022-11-06T06:46:27.927Z,3.23
2022-11-06T06:49:16.369Z,3.67
2022-11-06T06:52:05.162Z,4.04
2022-11-06T06:54:53.618Z,4.18
2022-11-06T06:57:42.055Z,4.48
2022-11-06T07:00:31.837Z,4.76
2022-11-06T07:03:20.317Z,4.98
2022-11-06T07:06:08.998Z,5.05
2022-11-06T07:08:57.468Z,4.85
2022-11-06T07:11:45.921Z,4.86
2022-11-06T07:14:34.327Z,4.63
2022-11-06T07:17:24.099Z,4.66
2022-11-06T07:20:12.825Z,4.83
2022-11-06T07:23:07.140Z,5.02
2022-11-06T07:25:55.843Z,5.04
2022-11-06T07:28:44.252Z,5.41
2022-11-06T07:31:32.773Z,5.63
2022-11-06T07:34:22.569Z,6.00
2022-11-06T07:37:11.005Z,6.25
2022-11-06T07:39:59.436Z,6.49
2022-11-06T07:42:47.907Z,6.62
2022-11-06T07:45:36.835Z,6.78
2022-11-06T07:48:25.319Z,6.31
2022-11-06T07:51:15.086Z,7.20
2022-11-06T07:54:03.538Z,7.15
2022-11-06T07:56:51.986Z,7.21
2022-11-06T07:59:40.782Z,7.36
2022-11-06T08:02:29.280Z,7.44
2022-11-06T08:05:17.851Z,7.53
2022-11-06T08:08:07.725Z,7.60
2022-11-06T08:10:56.165Z,7.92
2022-11-06T08:13:44.604Z,7.94
2022-11-06T08:16:33.270Z,7.62
2022-11-06T08:19:22.009Z,7.99
2022-11-06T08:22:10.736Z,8.26
2022-11-06T08:25:00.489Z,8.49
2022-11-06T08:27:48.898Z,8.61
2022-11-06T08:30:37.313Z,8.80
2022-11-06T08:33:26.076Z,8.65
2022-11-06T08:36:14.527Z,9.61
2022-11-06T08:39:02.977Z,9.68
2022-11-06T08:41:52.744Z,9.72
2022-11-06T08:44:42.412Z,9.82
2022-11-06T08:47:30.962Z,9.65
2022-11-06T08:50:19.586Z,9.72
2022-11-06T08:53:08.536Z,9.60
2022-11-06T08:55:57.128Z,9.70
2022-11-06T08:59:12.659Z,9.75
2022-11-06T09:02:06.855Z,9.67
2022-11-06T09:05:07.638Z,9.86
2022-11-06T09:08:21.194Z,9.64
2022-11-06T09:11:29.468Z,9.69
2022-11-06T09:14:28.231Z,9.35
2022-11-06T09:17:23.873Z,9.27
2022-11-06T09:20:24.770Z,8.95
2022-11-06T09:23:14.949Z,9.13
2022-11-06T09:26:15.899Z,9.06
2022-11-06T09:29:05.153Z,9.13
2022-11-06T09:31:55.880Z,8.80
2022-11-06T09:34:51.270Z,9.09
2022-11-06T09:37:48.037Z,9.03
2022-11-06T09:40:49.286Z,9.05
2022-11-06T09:44:04.516Z,9.52
2022-11-06T09:47:01.407Z,9.68
2022-11-06T09:49:58.934Z,9.65
2022-11-06T09:52:51.899Z,9.85
2022-11-06T09:55:54.957Z,10.05
2022-11-06T09:58:48.495Z,10.10
2022-11-06T10:01:41.643Z,10.32
2022-11-06T10:04:40.990Z,10.42
2022-11-06T10:07:31.614Z,10.49
2022-11-06T10:10:21.542Z,10.29
2022-11-06T10:13:28.602Z,10.57
2022-11-06T10:16:24.322Z,10.48
2022-11-06T10:19:29.616Z,10.78
2022-11-06T10:22:24.764Z,10.74
2022-11-06T10:25:20.888Z,10.64
2022-11-06T10:28:20.071Z,10.60
2022-11-06T10:31:12.261Z,10.69
2022-11-06T10:34:03.574Z,10.76
2022-11-06T10:36:53.442Z,10.63
2022-11-06T10:39:43.749Z,11.02
2022-11-06T10:42:38.494Z,11.03
2022-11-06T10:45:28.674Z,10.51
2022-11-06T10:48:30.106Z,11.53
2022-11-06T10:51:29.404Z,11.76
2022-11-06T10:54:29.610Z,11.92
2022-11-06T10:57:28.168Z,12.08
2022-11-06T11:00:17.340Z,12.24
2022-11-06T11:03:07.837Z,12.38
2022-11-06T11:05:56.538Z,12.42
2022-11-06T11:08:46.978Z,12.44
2022-11-06T11:11:35.467Z,12.56
2022-11-06T11:14:26.530Z,12.63
2022-11-06T11:17:21.113Z,12.74
2022-11-06T11:20:31.399Z,12.87
2022-11-06T11:23:22.025Z,12.96
2022-11-06T11:26:21.483Z,12.80
2022-11-06T11:29:16.019Z,12.88
2022-11-06T11:32:07.114Z,12.76
2022-11-06T11:34:57.156Z,13.04
2022-11-06T11:37:46.580Z,12.76
2022-11-06T11:40:37.294Z,12.90
2022-11-06T11:43:27.520Z,12.82
2022-11-06T11:46:20.641Z,12.73
2022-11-06T11:49:27.298Z,12.70
2022-11-06T11:52:19.659Z,12.62
2022-11-06T11:55:15.830Z,12.56
2022-11-06T11:58:04.499Z,12.54
2022-11-06T12:00:56.247Z,12.54
2022-11-06T12:03:47.176Z,12.46
2022-11-06T12:06:37.105Z,12.46
2022-11-06T12:09:26.510Z,12.43
2022-11-06T12:12:21.630Z,12.46
2022-11-06T12:15:20.143Z,12.44
2022-11-06T12:18:15.462Z,12.40
2022-11-06T12:21:06.530Z,12.46
2022-11-06T12:23:59.126Z,12.43
2022-11-06T12:26:52.335Z,12.23
2022-11-06T12:29:43.146Z,12.37
2022-11-06T12:32:49.878Z,12.32
2022-11-06T12:35:40.591Z,12.24
2022-11-06T12:38:33.191Z,12.30
2022-11-06T12:41:26.271Z,12.26
2022-11-06T12:44:16.205Z,12.22
2022-11-06T12:47:09.322Z,12.18
2022-11-06T12:50:09.700Z,12.13
2022-11-06T12:53:09.096Z,12.15
2022-11-06T12:56:02.020Z,12.15
2022-11-06T12:59:07.033Z,12.08
2022-11-06T13:02:02.054Z,12.07
2022-11-06T13:04:55.458Z,12.00
2022-11-06T13:08:19.401Z,12.08
2022-11-06T13:11:19.235Z,12.07
2022-11-06T13:14:16.184Z,11.12
2022-11-06T13:17:07.303Z,12.13
2022-11-06T13:20:00.091Z,12.31
2022-11-06T13:22:52.822Z,12.40
2022-11-06T13:25:48.877Z,12.32
2022-11-06T13:28:41.996Z,12.22
2022-11-06T13:31:37.895Z,12.08
2022-11-06T13:34:28.006Z,12.09
2022-11-06T13:37:19.632Z,12.04
2022-11-06T13:40:18.612Z,11.89
2022-11-06T13:43:12.146Z,11.90
2022-11-06T13:46:06.217Z,11.83
2022-11-06T13:49:05.139Z,11.78
2022-11-06T13:51:55.553Z,11.64
2022-11-06T13:54:59.439Z,11.69
2022-11-06T13:58:18.958Z,11.63
2022-11-06T14:01:15.937Z,11.65
2022-11-06T14:04:43.596Z,11.62
2022-11-06T14:07:32.697Z,11.65
2022-11-06T14:10:22.573Z,11.66
2022-11-06T14:13:16.057Z,11.44
2022-11-06T14:16:25.109Z,10.82
2022-11-06T14:19:15.250Z,11.68
2022-11-06T14:22:24.550Z,10.76
2022-11-06T14:25:48.767Z,11.62
2022-11-06T14:28:38.695Z,11.63
2022-11-06T14:31:59.563Z,11.61
2022-11-06T14:34:48.751Z,11.59
2022-11-06T14:37:47.833Z,11.43
2022-11-06T14:40:37.077Z,11.47
2022-11-06T14:43:28.542Z,11.42
2022-11-06T14:46:22.358Z,11.38
2022-11-06T14:49:20.338Z,11.30
2022-11-06T14:52:11.341Z,11.22
2022-11-06T14:55:05.533Z,11.08
2022-11-06T14:57:55.395Z,11.15
2022-11-06T15:00:51.864Z,11.08
2022-11-06T15:03:46.160Z,11.04
2022-11-06T15:06:43.295Z,10.97
2022-11-06T15:09:47.687Z,10.96
2022-11-06T15:13:10.179Z,10.92
2022-11-06T15:16:04.564Z,10.89
2022-11-06T15:18:36.374Z,10.85
2022-11-06T15:21:07.035Z,10.78
2022-11-06T15:23:41.638Z,10.76
2022-11-06T15:26:17.978Z,10.69
2022-11-06T15:28:48.605Z,10.62
2022-11-06T15:31:19.421Z,10.64
2022-11-06T15:33:55.955Z,10.47
2022-11-06T15:36:24.942Z,10.52
2022-11-06T15:39:30.678Z,10.42
2022-11-06T15:42:20.793Z,10.36
2022-11-06T15:45:21.202Z,10.34
2022-11-06T15:48:21.498Z,10.32
2022-11-06T15:51:21.514Z,10.24
2022-11-06T15:54:14.572Z,10.25
2022-11-06T15:57:05.149Z,10.18
2022-11-06T16:00:09.077Z,10.13
2022-11-06T16:03:05.129Z,10.13
2022-11-06T16:05:54.985Z,10.10
2022-11-06T16:08:43.530Z,10.07
2022-11-06T16:11:32.397Z,10.01
2022-11-06T16:14:21.133Z,9.94
2022-11-06T16:17:10.805Z,9.91
2022-11-06T16:20:04.110Z,9.91
2022-11-06T16:22:52.546Z,9.91
2022-11-06T16:25:43.230Z,9.90
2022-11-06T16:28:32.169Z,9.83
2022-11-06T16:31:22.617Z,9.83
2022-11-06T16:34:22.059Z,9.82
2022-11-06T16:37:46.239Z,9.81
2022-11-06T16:40:54.594Z,9.76
2022-11-06T16:43:43.295Z,9.73
2022-11-06T16:47:11.716Z,9.68
2022-11-06T16:50:02.002Z,9.65
2022-11-06T16:52:54.118Z,9.59
2022-11-06T16:55:42.616Z,9.60
2022-11-06T16:58:35.822Z,9.54
2022-11-06T17:01:24.971Z,9.48
2022-11-06T17:04:21.633Z,9.48
2022-11-06T17:07:19.739Z,9.48
2022-11-06T17:10:42.175Z,9.50
2022-11-06T17:13:33.155Z,9.47
2022-11-06T17:16:22.998Z,9.39
2022-11-06T17:19:11.503Z,9.18
2022-11-06T17:22:00.058Z,9.37
2022-11-06T17:24:48.500Z,9.38
2022-11-06T17:27:36.939Z,9.35
2022-11-06T17:30:26.797Z,9.37
2022-11-06T17:33:16.220Z,9.37
2022-11-06T17:36:05.365Z,9.36
2022-11-06T17:38:54.749Z,9.34
2022-11-06T17:41:43.208Z,9.33
2022-11-06T17:44:31.648Z,9.26
2022-11-06T17:47:21.462Z,9.32
2022-11-06T17:50:10.815Z,9.29
2022-11-06T17:52:59.806Z,9.28
2022-11-06T17:55:48.253Z,9.28
2022-11-06T17:58:36.705Z,9.27
2022-11-06T18:01:25.467Z,9.25
2022-11-06T18:04:15.391Z,9.27
2022-11-06T18:07:03.982Z,9.24
2022-11-06T18:09:52.525Z,9.22
2022-11-06T18:12:41.126Z,9.22
2022-11-06T18:15:29.580Z,9.26
2022-11-06T18:18:18.079Z,9.17
2022-11-06T18:21:08.053Z,9.26
2022-11-06T18:23:56.581Z,9.25
2022-11-06T18:26:45.139Z,9.23
2022-11-06T18:29:33.629Z,9.20
2022-11-06T18:32:22.136Z,9.25
2022-11-06T18:35:10.821Z,8.31
2022-11-06T18:38:00.638Z,9.04
2022-11-06T18:40:51.783Z,9.28
2022-11-06T18:43:40.546Z,9.25
2022-11-06T18:46:29.651Z,9.35
2022-11-06T18:49:18.121Z,9.38
2022-11-06T18:52:06.633Z,9.39
2022-11-06T18:55:00.853Z,9.26
2022-11-06T18:57:49.633Z,9.46
2022-11-06T19:00:38.205Z,9.48
2022-11-06T19:03:26.687Z,9.48
2022-11-06T19:06:17.872Z,9.59
2022-11-06T19:09:07.458Z,9.60
2022-11-06T19:11:57.339Z,9.62
2022-11-06T19:14:45.895Z,9.59
2022-11-06T19:17:34.351Z,9.75
2022-11-06T19:20:22.831Z,9.77
2022-11-06T19:23:15.384Z,9.84
2022-11-06T19:26:29.385Z,9.79
2022-11-06T19:29:16.168Z,9.77
2022-11-06T19:32:04.741Z,9.80
2022-11-06T19:34:53.186Z,9.53
2022-11-06T19:37:41.658Z,9.73
2022-11-06T19:40:30.209Z,9.72
2022-11-06T19:43:18.761Z,9.68
2022-11-06T19:46:09.227Z,9.75
2022-11-06T19:48:57.854Z,9.59
2022-11-06T19:51:46.320Z,9.69
2022-11-06T19:54:34.942Z,9.67
2022-11-06T19:57:29.639Z,9.63
2022-11-06T20:00:18.834Z,9.73
2022-11-06T20:03:08.951Z,8.86
2022-11-06T20:05:57.406Z,9.72
2022-11-06T20:08:48.696Z,9.86
2022-11-06T20:11:37.195Z,9.87
2022-11-06T20:14:25.704Z,9.95
2022-11-06T20:17:14.991Z,10.00
2022-11-06T20:20:05.283Z,10.13
2022-11-06T20:22:54.168Z,10.00
2022-11-06T20:25:42.700Z,10.26
2022-11-06T20:28:31.241Z,10.26
2022-11-06T20:31:22.466Z,10.60
2022-11-06T20:34:10.945Z,10.61
2022-11-06T20:37:00.707Z,10.54
2022-11-06T20:39:52.012Z,10.31
2022-11-06T20:42:40.738Z,10.58
2022-11-06T20:45:29.259Z,10.63
2022-11-06T20:48:17.823Z,10.50
2022-11-06T20:51:07.870Z,10.13
2022-11-06T20:53:57.666Z,10.38
2022-11-06T20:56:46.996Z,10.48
2022-11-06T20:59:38.740Z,10.31
2022-11-06T21:02:27.325Z,9.96
2022-11-06T21:05:15.890Z,10.20
2022-11-06T21:08:04.345Z,10.26
2022-11-06T21:11:03.281Z,10.28
2022-11-06T21:13:55.173Z,10.32
2022-11-06T21:16:43.754Z,10.27
2022-11-06T21:19:33.079Z,10.20
2022-11-06T21:22:21.546Z,10.19
2022-11-06T21:25:11.854Z,10.18
2022-11-06T21:28:01.713Z,10.18
2022-11-06T21:30:50.334Z,10.05
2022-11-06T21:33:40.672Z,10.17
2022-11-06T21:36:30.548Z,10.21
2022-11-06T21:39:20.342Z,10.17
2022-11-06T21:42:08.819Z,10.21
2022-11-06T21:44:58.610Z,10.37
2022-11-06T21:47:47.093Z,10.34
2022-11-06T21:50:35.577Z,10.29
2022-11-06T21:53:42.034Z,10.25
2022-11-06T21:56:30.659Z,10.27
2022-11-06T21:59:20.878Z,10.25
2022-11-06T22:02:11.452Z,10.40
2022-11-06T22:05:00.007Z,10.41
2022-11-06T22:07:48.495Z,10.47
2022-11-06T22:10:37.089Z,10.50
2022-11-06T22:13:25.581Z,10.56
2022-11-06T22:16:15.720Z,10.55
2022-11-06T22:19:07.191Z,10.60
2022-11-06T22:21:55.643Z,10.63
2022-11-06T22:24:44.066Z,10.55
2022-11-06T22:27:35.607Z,10.36
2022-11-06T22:30:26.645Z,10.47
2022-11-06T22:33:15.339Z,10.43
2022-11-06T22:36:07.139Z,10.42
2022-11-06T22:38:55.632Z,10.38
2022-11-06T22:41:44.069Z,10.38
2022-11-06T22:44:33.650Z,10.37
2022-11-06T22:47:22.154Z,10.38
2022-11-06T22:50:10.843Z,10.31
2022-11-06T22:53:00.623Z,10.36
2022-11-06T22:55:49.169Z,10.36
2022-11-06T22:58:37.666Z,10.33
2022-11-06T23:01:27.858Z,10.42
2022-11-06T23:04:16.545Z,10.35
2022-11-06T23:07:04.974Z,10.27
2022-11-06T23:09:54.783Z,10.28
2022-11-06T23:12:43.218Z,10.29
2022-11-06T23:15:32.099Z,10.31
2022-11-06T23:18:20.504Z,10.23
2022-11-06T23:21:13.471Z,10.25
2022-11-06T23:24:01.902Z,10.22
2022-11-06T23:26:51.765Z,10.21
2022-11-06T23:29:40.391Z,10.17
2022-11-06T23:32:29.089Z,10.20
2022-11-06T23:35:21.178Z,10.18
2022-11-06T23:38:11.207Z,10.12
2022-11-06T23:41:20.274Z,10.14
2022-11-06T23:44:30.598Z,10.13
2022-11-06T23:47:19.248Z,10.12
2022-11-06T23:50:08.425Z,10.12
2022-11-06T23:52:56.859Z,10.11
2022-11-06T23:55:45.386Z,9.99
2022-11-06T23:58:33.806Z,10.08
